Home > Products > Valid Products > MTR

000
SAUS46 KPQR 011053
MTRREO
METAR KREO 011052Z AUTO 15007KT 00/M02 A3011 RMK AO1 SLP193
T00001022





000
SAUS46 KPQR 011053
MTRREO
METAR KREO 011052Z AUTO 15007KT 00/M02 A3011 RMK AO1 SLP193
T00001022





000
SAUS46 KPQR 010953
MTRREO
METAR KREO 010952Z AUTO 16005KT 01/M02 A3010 RMK AO1 SLP190
T00061017





000
SAUS46 KPQR 010853
MTRREO
METAR KREO 010852Z AUTO 14004KT 01/M01 A3012 RMK AO1 SLP194
T00111011 58004





000
SAUS46 KPQR 010853
MTRREO
METAR KREO 010852Z AUTO 14004KT 01/M01 A3012 RMK AO1 SLP194
T00111011 58004





000
SAUS46 KPQR 010753
MTRREO
METAR KREO 010752Z AUTO 00000KT 04/M01 A3013 RMK AO1 SLP196
T00391006 401941006





000
SAUS46 KPQR 010653
MTRREO
METAR KREO 010652Z AUTO 06006KT 06/01 A3013 RMK AO1 SLP194 T00610006





000
SAUS46 KPQR 010653
MTRREO
METAR KREO 010652Z AUTO 06006KT 06/01 A3013 RMK AO1 SLP194 T00610006





000
SAUS46 KPQR 010553
MTRREO
METAR KREO 010552Z AUTO 06006KT 08/01 A3013 RMK AO1 SLP195 T00780006
10183 20078 51013





000
SAUS46 KPQR 010553
MTRREO
METAR KREO 010552Z AUTO 06006KT 08/01 A3013 RMK AO1 SLP195 T00780006
10183 20078 51013





000
SAUS46 KPQR 010453
MTRREO
METAR KREO 010452Z AUTO 01013KT 11/01 A3013 RMK AO1 SLP192 T01060011





000
SAUS46 KPQR 010353
MTRREO
METAR KREO 010352Z AUTO 02014KT 12/01 A3011 RMK AO1 SLP186 T01170006





000
SAUS46 KPQR 010253
MTRREO
METAR KREO 010252Z AUTO 02014KT 13/M01 A3009 RMK AO1 SLP180
T01331006 53009





000
SAUS46 KPQR 010253
MTRREO
METAR KREO 010252Z AUTO 02014KT 13/M01 A3009 RMK AO1 SLP180
T01331006 53009





000
SAUS46 KPQR 010153
MTRREO
METAR KREO 010152Z AUTO 01012G20KT 16/M01 A3006 RMK AO1 SLP174
T01611011





000
SAUS46 KPQR 010053
MTRREO
METAR KREO 010052Z AUTO 02015G21KT 17/M02 A3006 RMK AO1 SLP176
T01671017





000
SAUS46 KPQR 010053
MTRREO
METAR KREO 010052Z AUTO 02015G21KT 17/M02 A3006 RMK AO1 SLP176
T01671017





000
SAUS46 KPQR 302353
MTRREO
METAR KREO 302352Z AUTO 01014G23KT 17/M02 A3005 RMK AO1 SLP172
T01671022 10194 20133 56006





000
SAUS46 KPQR 302254
MTRREO
METAR KREO 302252Z AUTO 35014G22KT 19/M02 A3006 RMK AO1 PK WND
35027/2204 SLP167 T01891022





000
SAUS46 KPQR 302153
MTRREO
METAR KREO 302152Z AUTO 36014G22KT 18/M01 A3006 RMK AO1 PK WND
36027/2138 SLP171 T01781011





000
SAUS46 KPQR 302153
MTRREO
METAR KREO 302152Z AUTO 36014G22KT 18/M01 A3006 RMK AO1 PK WND
36027/2138 SLP171 T01781011





000
SAUS46 KPQR 302053
MTRREO
METAR KREO 302052Z AUTO 36014G25KT 18/M01 A3007 RMK AO1 PK WND
02026/2026 SLP174 T01781006 56009





000
SAUS46 KPQR 301953
MTRREO
METAR KREO 301952Z AUTO 01016G22KT 16/M01 A3007 RMK AO1 PK WND
36027/1936 SLP176 T01611006





000
SAUS46 KPQR 301953
MTRREO
METAR KREO 301952Z AUTO 01016G22KT 16/M01 A3007 RMK AO1 PK WND
36027/1936 SLP176 T01611006





000
SAUS46 KPQR 301853
MTRREO
METAR KREO 301852Z AUTO 35010G24KT 15/01 A3009 RMK AO1 SLP181
T01500006





000
SAUS46 KPQR 301753
MTRREO
METAR KREO 301752Z AUTO 01016G23KT 13/01 A3010 RMK AO1 SLP186
T01330011 10133 21006 58003





000
SAUS46 KPQR 301753
MTRREO
METAR KREO 301752Z AUTO 01016G23KT 13/01 A3010 RMK AO1 SLP186
T01330011 10133 21006 58003





000
SAUS46 KPQR 301653
MTRREO
METAR KREO 301652Z AUTO 36013G19KT 11/01 A3012 RMK AO1 SLP195
T01110011





000
SAUS46 KPQR 301553
MTRREO
METAR KREO 301552Z AUTO 36012KT 10/02 A3012 RMK AO1 SLP197 T01000017





000
SAUS46 KPQR 301453
MTRREO
METAR KREO 301452Z AUTO 32003KT 08/01 A3011 RMK AO1 SLP196 T00780011
53015





000
SAUS46 KPQR 301453
MTRREO
METAR KREO 301452Z AUTO 32003KT 08/01 A3011 RMK AO1 SLP196 T00780011
53015





000
SAUS46 KPQR 301353
MTRREO
METAR KREO 301352Z AUTO 00000KT 03/01 A3010 RMK AO1 SLP197 T00330006





000
SAUS46 KPQR 301353
MTRREO
METAR KREO 301352Z AUTO 00000KT 03/01 A3010 RMK AO1 SLP197 T00330006





000
SAUS46 KPQR 301253
MTRREO
METAR KREO 301252Z AUTO 12003KT 00/M02 A3008 RMK AO1 SLP195
T00001017





000
SAUS46 KPQR 301153
MTRREO
METAR KREO 301152Z AUTO 00000KT 02/00 A3007 RMK AO1 SLP187 70015
T00220000 10078 20022 51007





000
SAUS46 KPQR 301153
MTRREO
METAR KREO 301152Z AUTO 00000KT 02/00 A3007 RMK AO1 SLP187 70015
T00220000 10078 20022 51007





000
SAUS46 KPQR 301053
MTRREO
METAR KREO 301052Z AUTO 14003KT 04/01 A3006 RMK AO1 SLP183 T00390011





000
SAUS46 KPQR 301053
MTRREO
METAR KREO 301052Z AUTO 14003KT 04/01 A3006 RMK AO1 SLP183 T00390011





000
SAUS46 KPQR 300953
MTRREO
METAR KREO 300952Z AUTO 18003KT 04/01 A3005 RMK AO1 SLP179 T00390011





000
SAUS46 KPQR 300853
MTRREO
METAR KREO 300852Z AUTO 00000KT 04/00 A3004 RMK AO1 SLP175 T00440000
51013





000
SAUS46 KPQR 300853
MTRREO
METAR KREO 300852Z AUTO 00000KT 04/00 A3004 RMK AO1 SLP175 T00440000
51013





000
SAUS46 KPQR 300753
MTRREO
METAR KREO 300752Z AUTO 31005KT 04/01 A3003 RMK AO1 SLP169 T00440006
401280044





000
SAUS46 KPQR 300653
MTRREO
METAR KREO 300652Z AUTO 32006KT 07/02 A3002 RMK AO1 SLP158 T00720017





000
SAUS46 KPQR 300653
MTRREO
METAR KREO 300652Z AUTO 32006KT 07/02 A3002 RMK AO1 SLP158 T00720017





000
SAUS46 KPQR 300553
MTRREO
METAR KREO 300552Z AUTO 31008KT 08/03 A3000 RMK AO1 SLP152 60001
T00780028 10094 20078 51014





000
SAUS46 KPQR 300553
MTRREO
METAR KREO 300552Z AUTO 31008KT 08/03 A3000 RMK AO1 SLP152 60001
T00780028 10094 20078 51014





000
SAUS46 KPQR 300453
MTRREO
METAR KREO 300452Z AUTO 31006KT 08/03 A2999 RMK AO1 SLP148 T00780028





000
SAUS46 KPQR 300353
MTRREO
METAR KREO 300352Z AUTO 32007KT 08/03 A2998 RMK AO1 SLP145 T00780028





000
SAUS46 KPQR 300353
MTRREO
METAR KREO 300352Z AUTO 32007KT 08/03 A2998 RMK AO1 SLP145 T00780028





000
SAUS46 KPQR 300253
MTRREO
METAR KREO 300252Z AUTO 31008KT 08/03 A2995 RMK AO1 SLP138 60001
T00830028 53008





000
SAUS46 KPQR 300153
MTRREO
METAR KREO 300152Z AUTO 31008KT 09/03 A2994 RMK AO1 SLP135 T00890033





000
SAUS46 KPQR 300053
MTRREO
METAR KREO 300052Z AUTO 23004KT 09/04 A2993 RMK AO1 SLP135 P0001
T00890044





000
SAUS46 KPQR 300053
MTRREO
METAR KREO 300052Z AUTO 23004KT 09/04 A2993 RMK AO1 SLP135 P0001
T00890044





000
SAUS46 KPQR 292353
MTRREO
METAR KREO 292352Z AUTO 18003KT 08/05 A2992 RMK AO1 SLP133 P0004
60014 T00830050 10128 20072 50002





000
SAUS46 KPQR 292253
MTRREO
METAR KREO 292252Z AUTO 21004KT 08/04 A2993 RMK AO1 SLP134 P0009
T00780039





000
SAUS46 KPQR 292153
MTRREO
METAR KREO 292152Z AUTO 28007KT 09/04 A2992 RMK AO1 SLP128 P0001
T00890044





000
SAUS46 KPQR 292053
MTRREO
METAR KREO 292052Z AUTO 01007KT 10/03 A2992 RMK AO1 SLP124 T01000033
55003





000
SAUS46 KPQR 292053
MTRREO
METAR KREO 292052Z AUTO 01007KT 10/03 A2992 RMK AO1 SLP124 T01000033
55003





000
SAUS46 KPQR 291953
MTRREO
METAR KREO 291952Z AUTO 36011KT 11/03 A2991 RMK AO1 SLP121 T01060028





000
SAUS46 KPQR 291853
MTRREO
METAR KREO 291852Z AUTO 21009KT 12/00 A2991 RMK AO1 SLP118 T01220000





000
SAUS46 KPQR 291753
MTRREO
METAR KREO 291752Z AUTO 24010KT 12/01 A2992 RMK AO1 SLP122 T01220006
10128 20050 58003





000
SAUS46 KPQR 291653
MTRREO
METAR KREO 291652Z AUTO 22007KT 12/02 A2993 RMK AO1 SLP122 T01220017





000
SAUS46 KPQR 291553
MTRREO
METAR KREO 291552Z AUTO 25004KT 11/02 A2994 RMK AO1 SLP126 T01060022





000
SAUS46 KPQR 291453
MTRREO
METAR KREO 291452Z AUTO 00000KT 09/03 A2994 RMK AO1 SLP126 T00940033
55003





000
SAUS46 KPQR 291453
MTRREO
METAR KREO 291452Z AUTO 00000KT 09/03 A2994 RMK AO1 SLP126 T00940033
55003





000
SAUS46 KPQR 291353
MTRREO
METAR KREO 291352Z AUTO 20003KT 08/04 A2993 RMK AO1 SLP126 T00780039





000
SAUS46 KPQR 291353
MTRREO
METAR KREO 291352Z AUTO 20003KT 08/04 A2993 RMK AO1 SLP126 T00780039





000
SAUS46 KPQR 291253
MTRREO
METAR KREO 291252Z AUTO 00000KT 06/03 A2994 RMK AO1 SLP128 T00560033





000
SAUS46 KPQR 291153
MTRREO
METAR KREO 291152Z AUTO 10005KT 06/03 A2995 RMK AO1 SLP130 70001
T00610028 10100 20050 58001





000
SAUS46 KPQR 291053
MTRREO
METAR KREO 291052Z AUTO 07006KT 06/03 A2995 RMK AO1 SLP133 T00610033





000
SAUS46 KPQR 291053
MTRREO
METAR KREO 291052Z AUTO 07006KT 06/03 A2995 RMK AO1 SLP133 T00610033





000
SAUS46 KPQR 290953
MTRREO
METAR KREO 290952Z AUTO 15005KT 08/06 A2995 RMK AO1 SLP129 T00830056





000
SAUS46 KPQR 290853
MTRREO
METAR KREO 290852Z AUTO 17003KT 08/05 A2995 RMK AO1 SLP131 T00830050
50003





000
SAUS46 KPQR 290753
MTRREO
METAR KREO 290752Z AUTO 14004KT 09/04 A2996 RMK AO1 SLP133 T00890044
401720056





000
SAUS46 KPQR 290653
MTRREO
METAR KREO 290652Z AUTO 19004KT 08/04 A2995 RMK AO1 SLP131 T00830044





000
SAUS46 KPQR 290553
MTRREO
METAR KREO 290552Z AUTO 06003KT 10/04 A2994 RMK AO1 SLP129 60001
T01000039 10172 20100 51014





000
SAUS46 KPQR 290453
MTRREO
METAR KREO 290452Z AUTO 35013KT 12/03 A2994 RMK AO1 SLP127 T01170028





000
SAUS46 KPQR 290353
MTRREO
METAR KREO 290352Z AUTO 36005KT 13/03 A2991 RMK AO1 SLP117 T01280033





000
SAUS46 KPQR 290253
MTRREO
METAR KREO 290252Z AUTO 17004KT 12/05 A2989 RMK AO1 SLP113 60001
T01220050 53004





000
SAUS46 KPQR 290153
MTRREO
METAR KREO 290152Z AUTO 13006KT 13/04 A2988 RMK AO1 SLP110 P0001
T01330044





000
SAUS46 KPQR 290053
MTRREO
METAR KREO 290052Z AUTO 34015KT 15/01 A2989 RMK AO1 SLP109 T01500011





000
SAUS46 KPQR 290053
MTRREO
METAR KREO 290052Z AUTO 34015KT 15/01 A2989 RMK AO1 SLP109 T01500011





000
SAUS46 KPQR 282353
MTRREO
METAR KREO 282352Z AUTO 26006KT 16/M01 A2988 RMK AO1 SLP106
T01611006 10172 20106 58008





000
SAUS46 KPQR 282353
MTRREO
METAR KREO 282352Z AUTO 26006KT 16/M01 A2988 RMK AO1 SLP106
T01611006 10172 20106 58008





000
SAUS46 KPQR 282253
MTRREO
METAR KREO 282252Z AUTO 27008KT 240V310 15/M01 A2989 RMK AO1 SLP110
T01501006





000
SAUS46 KPQR 282253
MTRREO
METAR KREO 282252Z AUTO 27008KT 240V310 15/M01 A2989 RMK AO1 SLP110
T01501006





000
SAUS46 KPQR 282153
MTRREO
METAR KREO 282152Z AUTO VRB06KT 15/00 A2991 RMK AO1 SLP116 T01500000





000
SAUS46 KPQR 282053
MTRREO
METAR KREO 282052Z AUTO 27007KT 13/01 A2991 RMK AO1 SLP119 T01330006
55003





000
SAUS46 KPQR 282053
MTRREO
METAR KREO 282052Z AUTO 27007KT 13/01 A2991 RMK AO1 SLP119 T01330006
55003





000
SAUS46 KPQR 281953
MTRREO
METAR KREO 281952Z AUTO 32007G15KT 280V350 13/01 A2990 RMK AO1
SLP115 T01330006





000
SAUS46 KPQR 281853
MTRREO
METAR KREO 281852Z AUTO 31006KT 13/01 A2992 RMK AO1 SLP118 T01330011





000
SAUS46 KPQR 281853
MTRREO
METAR KREO 281852Z AUTO 31006KT 13/01 A2992 RMK AO1 SLP118 T01330011





000
SAUS46 KPQR 281753
MTRREO
METAR KREO 281752Z AUTO 34007KT 11/01 A2992 RMK AO1 SLP123 T01060006
10106 20067 51008





000
SAUS46 KPQR 281653
MTRREO
METAR KREO 281652Z AUTO 33008KT 10/01 A2991 RMK AO1 SLP123 T01000006





000
SAUS46 KPQR 281653
MTRREO
METAR KREO 281652Z AUTO 33008KT 10/01 A2991 RMK AO1 SLP123 T01000006





000
SAUS46 KPQR 281553
MTRREO
METAR KREO 281552Z AUTO VRB03KT 09/01 A2990 RMK AO1 SLP119 T00940011





000
SAUS46 KPQR 281453
MTRREO
METAR KREO 281452Z AUTO 00000KT 08/02 A2989 RMK AO1 SLP114 T00830017
53011





000
SAUS46 KPQR 281353
MTRREO
METAR KREO 281352Z AUTO 00000KT 08/01 A2988 RMK AO1 SLP110 T00780011





000
SAUS46 KPQR 281253
MTRREO
METAR KREO 281252Z AUTO 00000KT 07/02 A2986 RMK AO1 SLP106 T00670017





000
SAUS46 KPQR 281153
MTRREO
METAR KREO 281152Z AUTO 33003KT 07/02 A2985 RMK AO1 SLP101 T00720017
10094 20056 50001





000
SAUS46 KPQR 281153
MTRREO
METAR KREO 281152Z AUTO 33003KT 07/02 A2985 RMK AO1 SLP101 T00720017
10094 20056 50001





    US Dept of Commerce
    National Oceanic and Atmospheric Administration
    National Weather Service
    1325 East West Highway
    Silver Spring, MD 20910
    Page Author: NWS Internet Services Team
Disclaimer
Information Quality
Credits
Glossary
Privacy Policy
Freedom of Information Act (FOIA)
About Us
Career Opportunities